Nearby METAR Reports

 

KIAD - Wash Dc/Dulles, Virginia, USA
Distance from station: ESE 7mi, 11km
Updated: Thu, 14-Nov-2019 4:52pm EST
Mostly cloudy
Mostly cloudy
 Wind from ESE
Wind: ESE 3 mph , 6 km/h
Temperature: 37°F , 3°C
Dew Point: 18°F , -8°C
Humidity: 45%
Barometer: 30.31 inHg , 1026.4 hPa
Clouds: Mostly cloudy
Visibility: 10 miles , 16 km
Cloud details: Few Clouds 10000 ft
Partly cloudy 15000 ft
Mostly cloudy 25000 ft
2019/11/14 21:52 KIAD 142152Z 12003KT 10SM FEW100 SCT150 BKN250 03/M08 A3031 RMK AO2 SLP268 T00281078
KJYO - Leesburg/Godfrey, Virginia, USA
Distance from station: N 7mi, 12km
Updated: Thu, 14-Nov-2019 5:15pm EST
Partly cloudy
Partly cloudy
 Wind from S
Wind: S 5 mph , 7 km/h
Temperature: 37°F , 3°C
Wind Chill: 33°F , 1°C
Dew Point: 23°F , -5°C
Humidity: 56%
Barometer: 30.32 inHg , 1026.8 hPa
Clouds: Partly cloudy
Visibility: 10 miles , 16 km
Cloud details: Partly cloudy 12000 ft
2019/11/14 22:15 KJYO 142215Z AUTO 18004KT 10SM SCT120 03/M05 A3032 RMK AO2
 
KHEF - Manassas Muni, Virginia, USA
Distance from station: S 17mi, 28km
Updated: Thu, 14-Nov-2019 4:56pm EST
Clear
Clear
 Wind from calm
Wind: Calm
Temperature: 37°F , 3°C
Dew Point: 19°F , -7°C
Humidity: 48%
Barometer: 30.32 inHg , 1026.8 hPa
Clouds: Clear
Visibility: 10 miles , 16 km
2019/11/14 21:56 KHEF 142156Z 00000KT 10SM CLR 03/M07 A3032 RMK AO2 SLP277 T00331067
KGAI - Gaithersburg, Maryland, USA
Distance from station: NE 26mi, 41km
Updated: Thu, 14-Nov-2019 4:56pm EST
Clear
Clear
 Wind from SSE
Wind: SSE 5 mph , 7 km/h
Temperature: 37°F , 3°C
Wind Chill: 33°F , 1°C
Dew Point: 18°F , -8°C
Humidity: 45%
Barometer: 30.31 inHg , 1026.4 hPa
Clouds: Clear
Visibility: 10 miles , 16 km
2019/11/14 21:56 KGAI 142156Z AUTO 16004KT 10SM CLR 03/M08 A3031 RMK AO2 SLP286 T00281083
 
KDAA - Fort Belvoir/Dav, Virginia, USA
Distance from station: SE 27mi, 44km
Updated: Thu, 14-Nov-2019 4:56pm EST
Mostly cloudy
Mostly cloudy
 Wind from calm
Wind: Calm
Temperature: 37°F , 3°C
Dew Point: 21°F , -6°C
Humidity: 52%
Barometer: 30.33 inHg , 1027.1 hPa
Clouds: Mostly cloudy
Visibility: 10 miles , 16 km
Cloud details: Mostly cloudy 18000 ft
2019/11/14 21:56 KDAA 142156Z AUTO 00000KT 10SM BKN180 03/M06 A3033 RMK AO2 SLP275 T00321062 $
KHWY - Warrenton, Virginia, USA
Distance from station: SSW 27mi, 44km
Updated: Thu, 14-Nov-2019 5:35pm EST
Clear
Clear
 Wind from calm
Wind: Calm
Temperature: 36°F , 2°C
Dew Point: 19°F , -7°C
Humidity: 52%
Barometer: 30.31 inHg , 1026.4 hPa
Clouds: Clear
Visibility: 10 miles , 16 km
2019/11/14 22:35 KHWY 142235Z AUTO 00000KT 10SM CLR 02/M07 A3031 RMK AO2 T00161068
 
KDCA - Washington/Natl, Washington D.c., USA
Distance from station: ESE 30mi, 48km
Updated: Thu, 14-Nov-2019 4:52pm EST
Mostly cloudy
Mostly cloudy
 Wind from calm
Wind: Calm
Temperature: 41°F , 5°C
Dew Point: 19°F , -7°C
Humidity: 42%
Barometer: 30.33 inHg , 1027.1 hPa
Clouds: Mostly cloudy
Visibility: 10 miles , 16 km
Cloud details: Few Clouds 8000 ft
Mostly cloudy 18000 ft
Mostly cloudy 25000 ft
2019/11/14 21:52 KDCA 142152Z 00000KT 10SM FEW080 BKN180 BKN250 05/M07 A3033 RMK AO2 SLP271 T00501067
KFDK - Frederick, Maryland, USA
Distance from station: NNE 33mi, 53km
Updated: Thu, 14-Nov-2019 4:47pm EST
Partly cloudy
Partly cloudy
 Wind from calm
Wind: Calm
Temperature: 41°F , 5°C
Dew Point: 19°F , -7°C
Humidity: 42%
Barometer: 30.31 inHg , 1026.4 hPa
Clouds: Partly cloudy
Visibility: 10 miles , 16 km
Cloud details: Partly cloudy 17000 ft
2019/11/14 21:47 KFDK 142147Z 00000KT 10SM SCT170 05/M07 A3031
 
KOKV - Winchester Rgnl, Virginia, USA
Distance from station: WNW 33mi, 54km
Updated: Thu, 14-Nov-2019 5:35pm EST
Clear
Clear
 Wind from calm
Wind: Calm
Temperature: 32°F , 0°C
Dew Point: 19°F , -7°C
Humidity: 60%
Barometer: 30.26 inHg , 1024.7 hPa
Clouds: Clear
Visibility: 10 miles , 16 km
2019/11/14 22:35 KOKV 142235Z AUTO 00000KT 10SM CLR 00/M07 A3026 RMK AO2
KCJR - Culpeper, Virginia, USA
Distance from station: SSW 34mi, 54km
Updated: Thu, 14-Nov-2019 5:35pm EST
Clear
Clear
 Wind from calm
Wind: Calm
Temperature: 32°F , 0°C
Dew Point: 21°F , -6°C
Humidity: 64%
Barometer: 30.32 inHg , 1026.8 hPa
Clouds: Clear
Visibility: 10 miles , 16 km
2019/11/14 22:35 KCJR 142235Z AUTO 00000KT 10SM CLR 00/M06 A3032 RMK AO2 T00011063
 
KCGS - College Park, Maryland, USA
Distance from station: E 35mi, 56km
Updated: Thu, 14-Nov-2019 5:03pm EST
Clear
Clear
 Wind from calm
Wind: Calm
Temperature: 37°F , 3°C
Dew Point: 18°F , -8°C
Humidity: 45%
Barometer: 30.33 inHg , 1027.1 hPa
Clouds: Clear
Visibility: 10 miles , 16 km
2019/11/14 22:03 KCGS 142203Z AUTO 00000KT 10SM CLR 03/M08 A3033 RMK AO1 T00291082
KNYG - Quantico Mcaf, Virginia, USA
Distance from station: SSE 35mi, 57km
Updated: Thu, 14-Nov-2019 4:56pm EST
Overcast
Overcast
 Wind from E
Wind: E 3 mph , 6 km/h
Temperature: 43°F , 6°C
Dew Point: 21°F , -6°C
Humidity: 42%
Barometer: 30.33 inHg , 1027.1 hPa
Clouds: Overcast
Visibility: 10 miles , 16 km
Cloud details: Overcast 5000 ft
2019/11/14 21:56 KNYG 142156Z AUTO 10003KT 10SM OVC050 06/M06 A3033 RMK AO2 SLP272 T00611056
 
KFRR - Fort Royal, Virginia, USA
Distance from station: W 37mi, 59km
Updated: Thu, 14-Nov-2019 5:35pm EST
Clear
Clear
 Wind from NE
Wind: NE 5 mph , 7 km/h
Temperature: 36°F , 2°C
Wind Chill: 32°F , 0°C
Dew Point: 19°F , -7°C
Humidity: 52%
Barometer: 30.26 inHg , 1024.7 hPa
Clouds: Clear
Visibility: 10 miles , 16 km
2019/11/14 22:35 KFRR 142235Z AUTO 05004KT 10SM CLR 02/M07 A3026 RMK AO1
KMRB - Martinsburg, West Virginia, USA
Distance from station: NW 38mi, 61km
Updated: Thu, 14-Nov-2019 4:53pm EST
Clear
Clear
 Wind from calm
Wind: Calm
Temperature: 39°F , 4°C
Dew Point: 16°F , -9°C
Humidity: 39%
Barometer: 30.28 inHg , 1025.4 hPa
Clouds: Clear
Visibility: 10 miles , 16 km
2019/11/14 21:53 KMRB 142153Z 00000KT 10SM CLR 04/M09 A3028 RMK AO2 SLP258 T00391089
 
KADW - Andrews Afb, Maryland, USA
Distance from station: ESE 39mi, 63km
Updated: Thu, 14-Nov-2019 4:56pm EST
Mostly cloudy
Mostly cloudy
 Wind from calm
Wind: Calm
Temperature: 39°F , 4°C
Dew Point: 21°F , -6°C
Humidity: 48%
Barometer: 30.31 inHg , 1026.4 hPa
Clouds: Mostly cloudy
Visibility: 10 miles , 16 km
Cloud details: Mostly cloudy 18000 ft
2019/11/14 21:56 KADW 142156Z AUTO 00000KT 10SM BKN180 04/M06 A3031 RMK AO2 SLP274 T00391061 $
KRMN - Stafford Regnl, Virginia, USA
Distance from station: S 39mi, 63km
Updated: Thu, 14-Nov-2019 5:35pm EST
Mostly cloudy
Mostly cloudy
 Wind from calm
Wind: Calm
Temperature: 41°F , 5°C
Dew Point: 21°F , -6°C
Humidity: 45%
Barometer: 30.37 inHg , 1028.4 hPa
Clouds: Mostly cloudy
Visibility: 10 miles , 16 km
Cloud details: Partly cloudy 5000 ft
Mostly cloudy 6000 ft
2019/11/14 22:35 KRMN 142235Z AUTO 00000KT 10SM SCT050 BKN060 05/M06 A3037 RMK AO2 T00471057
 
KFME - Fort Meade, Maryland, USA
Distance from station: ENE 44mi, 70km
Updated: Thu, 14-Nov-2019 5:03pm EST
Clear
Clear
 Wind from calm
Wind: Calm
Temperature: 36°F , 2°C
Dew Point: 23°F , -5°C
Humidity: 60%
Barometer: 30.35 inHg , 1027.8 hPa
Clouds: Clear
Visibility: 10 miles , 16 km
2019/11/14 22:03 KFME 142203Z AUTO 00000KT 10SM CLR 02/M05 A3035 RMK AO1
KRSP - Nsf Thurmont, Maryland, USA
Distance from station: N 48mi, 77km
Updated: Sat, 18-May-2019 1:54pm EDT
NOT Current

 
2019/05/18 17:54 KRSP 181754Z AUTO VRB04KTLS21/16 A3004 RMK AO2 SLP168 T02110161 10228 20172 $
 
KEZF - Fredericksb/Shan, Virginia, USA
Distance from station: S 48mi, 78km
Updated: Thu, 14-Nov-2019 5:15pm EST
Overcast
Overcast
 Wind from S
Wind: S 5 mph , 7 km/h
Temperature: 43°F , 6°C
Wind Chill: 40°F , 4°C
Dew Point: 25°F , -4°C
Humidity: 49%
Barometer: 30.32 inHg , 1026.8 hPa
Clouds: Overcast
Visibility: 10 miles , 16 km
Cloud details: Partly cloudy 5000 ft
Overcast 6000 ft
2019/11/14 22:15 KEZF 142215Z AUTO 18004KT 10SM SCT050 OVC060 06/M04 A3032 RMK AO2 T00571042
KBWI - Balto/Wash Intl, Maryland, USA
Distance from station: ENE 49mi, 80km
Updated: Thu, 14-Nov-2019 4:54pm EST
Mostly cloudy
Mostly cloudy
 Wind from calm
Wind: Calm
Temperature: 39°F , 4°C
Dew Point: 19°F , -7°C
Humidity: 45%
Barometer: 30.33 inHg , 1027.1 hPa
Clouds: Mostly cloudy
Visibility: 10 miles , 16 km
Cloud details: Partly cloudy 16000 ft
Mostly cloudy 25000 ft
2019/11/14 21:54 KBWI 142154Z 00000KT 10SM SCT160 BKN250 04/M07 A3033 RMK AO2 SLP270 T00441067